Lambsburg, Virginia
Current Conditions -  °F | °C
As of 11:35 AM on Tuesday 21 Oct 2014 (Local Time) from KHLX Reporting Station
Overcast Overcast  
Wind Chill: 56°   Ceiling: 2800
Heat Index: 56°   Visibility: 10mi
Dew Point: 45°   Wind: 10mph
Humidity: 66%   Direction: 280°W
Pressure: 29.96"   Gusts: NA
Location:  36.59°N, 80.76°W
Report Text: KHLX 211535Z AUTO 28009KT 250V310 10SM BKN028 OVC038 13/07 A2996 RMK AO2 T01330071
Loading
Personal Weather Stations






























Interactive Weather Map
Tropical Storm Tracking
New forecast layout! Learn more

10-Day Weather Forecast

Advertisements
Track Severe Weather on mobile